Immagine casuale
Testata Regione Lazio ARSIAL SIARL

Ultima Misura Rilevata

Temperatura, Umidità, Pioggia, Pressione Radiazione Solare, Venti, Evapotraspirazione, ecc.
Temperature diurne e notturne Direzione vento Legenda
Prov Stazione Data TMin TMed TMax UMed Pioggia PMed
FR ALATRI Basciano 26/03/2020 2,4 6,4 8,8 98 15 998
FR ALVITO Az. Ist. S. Benedetto 26/03/2020 4,1 8,7 13 77 2,6 1.002
FR ANAGNI La Gloria 26/03/2020 2,6 6,7 9,6 97 10,4 1.002
FR ARPINO Vigne Piane 26/03/2020 2,8 7,1 9,7 85 18 1.000
FR BOVILLE ERNICA Sasso 26/03/2020 3,8 7,6 10,4 96 9 1.003
FR CECCANO C.da Passo del Cardinale 26/03/2020 4,1 7,6 11,1 98 17,2 ----
FR ESPERIA Modale 26/03/2020 5 9,3 12,3 83 19 999
FR PASTENA Acero 26/03/2020 3,8 7,8 11 91 36 1.000
FR PIGLIO Civitella 26/03/2020 2,5 7 11,8 92 7,4 1.002
FR PONTECORVO Melfi di Sotto 26/03/2020 4,5 8,5 12,2 89 15 ----
FR S. ELIA FIUMERAPIDO Portella 26/03/2020 6,1 9,9 13 80 31,6 1.001
FR S. GIORGIO A LIRI Porto 26/03/2020 5,9 9,5 11,9 83 9,6 1.000
FR SGURGOLA Campo Lungo 26/03/2020 3,5 7,4 10,7 95 20,9 ----
FR VALLECORSA Serbatoio comunale 26/03/2020 3,6 7,5 11,1 85 30 1.001
LT APRILIA Le Ferriere 26/03/2020 4,9 9,3 15 85 16,8 1.000
LT CISTERNA B.go Carso 26/03/2020 4,1 8,9 15,5 86 18,4 ----
LT CISTERNA Doganella di Ninfa 26/03/2020 3,8 9,1 15,7 80 13 1.001
LT CORI Portone 26/03/2020 3,7 9,2 15,5 82 8,8 1.001
LT FONDI Capratica 26/03/2020 6,4 10,8 14,2 83 11,2 1.001
LT FORMIA Loc. Gianola 26/03/2020 8,4 10,6 13 79 22,4 ----
LT ITRI Valle Quercia 26/03/2020 8,9 11 16,7 72 16,8 1.000
LT MAENZA Casacotta 26/03/2020 4,9 9,5 13,7 84 44,2 998
LT MINTURNO Pulcherini 26/03/2020 5,8 9,3 11,9 83 17,6 1.002
LT PONTINIA Cotarda 26/03/2020 5 9,9 14,7 85 13,6 1.000
LT SABAUDIA Acquaviva 26/03/2020 4,7 9,5 14,4 88 18,8 1.000
LT SONNINO Frasso 26/03/2020 5,1 9,8 17,9 86 49 1.001
RI ACCUMOLI Terracino 26/03/2020 -2,9 -0,8 0,8 100 17,2 1.010
RI BORGOVELINO Ponte Basso 26/03/2020 3,9 8 12 68 1,2 1.004
RI CANTALUPO S. Francesco 26/03/2020 4,6 9,5 13,8 64 0,4 ----
RI CASTEL DI TORA Monte di Tora 26/03/2020 3,2 8,1 14,3 71 2 999
RI CASTELNUOVO FARFA C. Spadone 26/03/2020 5,5 11,1 14,6 58 0 ----
RI CONFIGNI Portella 26/03/2020 3,5 8,5 14,7 63 0,4 1.003
RI FARA SABINA Canneto 26/03/2020 5,4 10,7 14,4 60 0,2 1.001
RI FARA SABINA Sant'Andrea 26/03/2020 5,6 10,6 14,4 61 0,2 ----
RI MONTELEONE S. Prato Camino 26/03/2020 3,6 9,6 16 65 0,6 1.004
RI MONTOPOLI IN SABINA Colle Arcone 26/03/2020 5,1 10,4 14,7 67 0 ----
RI MONTOPOLI IN SABINA Villa Caprola 26/03/2020 5,2 10,5 15,1 76 0,3 ----
RI POGGIO CATINO Pastine 26/03/2020 4,7 10,2 14 58 0,2 ----
RI POGGIO NATIVO Casali 26/03/2020 4,3 9,4 13,2 68 0 ----
RI RIETI Piana di Rieti 26/03/2020 4,7 10 13,9 54 0 1.005
RI SCANDRIGLIA Ponticelli 26/03/2020 4,8 9,7 14,4 72 1,4 ----
RM AGOSTA La Cisterna 26/03/2020 2,7 8,7 12,8 70 2,8 1.002
RM BRACCIANO Prato Pianciano 26/03/2020 3,5 7,8 11,2 84 17 1.000
RM CANALE MONTERANO Monte Virginio 26/03/2020 2,1 6,1 10,7 86 14,8 1.002
RM CERVETERI Campo di Mare 26/03/2020 5 10 14,4 71 13,7 ----
RM CIVITELLA S.PAOLO Le Cese 26/03/2020 3,3 7,9 13,5 78 4,2 1.002
RM FIUMICINO Maccarese 26/03/2020 4,6 7,8 11,5 94 16,5 1.001
RM FIUMICINO Testa di Lepre 26/03/2020 3,9 7,5 11,5 87 15,9 ----
RM FORMELLO Perazzeta 26/03/2020 4,6 8,6 13,2 76 8,8 ----
RM FRASCATI Prata Porci 26/03/2020 4 8 12,5 58 12 1.003
RM GENAZZANO Coop. La Sonnina 26/03/2020 2,7 7 10,6 93 11,6 1.003
RM GROTTAFERRATA Valle Marciana 26/03/2020 3,6 7,4 11,2 87 15,4 1.002
RM LADISPOLI Palo Laziale 26/03/2020 4,5 8,8 12 80 15,3 1.003
RM LICENZA Colle Franco 26/03/2020 5,5 9,4 15,9 65 2,6 999
RM MARCELLINA V. Campetella 26/03/2020 4,2 8,9 14,5 83 1,2 ----
RM MARINO Gotto d'Oro 26/03/2020 3,9 7,9 13,5 86 16,2 1.004
RM MONTECOMPATRI Colle Mattia 26/03/2020 4,1 8,1 11,9 83 5 1.004
RM MONTECOMPATRI Pantano Borghese 26/03/2020 5,1 8,8 12,5 86 4 1.001
RM MONTELIBRETTI Bruciati 26/03/2020 5,7 10,9 14,6 63 0,4 ----
RM MONTEPORZIO Camaldoli 26/03/2020 0,7 5,5 9,3 88 17,4 1.003
RM MONTEROTONDO Grotta Marozza 26/03/2020 5,5 10,4 15 65 0,2 1.001
RM PALOMBARA Fonte Grande 26/03/2020 4,1 10 16,2 70 0,6 ----
RM ROMA Capocotta 26/03/2020 N.D. N.D. N.D. N.D. N.D. ----
RM ROMA Ponte di Nona 26/03/2020 4,6 8,3 11,5 98 8,4 1.004
RM ROMA Via Lanciani 38 26/03/2020 5,5 9,1 12 82 9,7 1.001
RM S. GREGORIO C. Faustiniano 26/03/2020 3,1 7,1 12,1 92 7,4 999
RM VELLETRI Cantina Sperimentale 26/03/2020 2,8 7,8 11,5 84 5,8 1.001
RM VELLETRI Prato Lungo 26/03/2020 4,1 8,8 14,2 80 11,8 ----
RM ZAGAROLO Santa Apollara 26/03/2020 3,4 7,3 11,3 91 8,2 ----
VT ACQUAPENDENTE Falconiera 26/03/2020 0,1 3,6 6,4 89 3,8 1.006
VT BAGNOREGIO Castell Cellesi 26/03/2020 1,8 6,1 9,5 76 0,2 ----
VT BASSANO R. Piano Mola 26/03/2020 1,5 5,5 10,5 87 7,8 999
VT BLERA Puntoni 26/03/2020 2 6,6 10,5 81 9,3 1.003
VT BOLSENA Capone 26/03/2020 1,4 5,5 8,4 81 11 1.003
VT BOLSENA Rentica 26/03/2020 1,4 5,3 7,9 82 9,8 ----
VT CANINO Diga Timone 26/03/2020 3,2 7,3 9,9 77 5,4 1.003
VT CANINO Pianacce 26/03/2020 3,3 7,3 10,1 74 4,4 1.004
VT CANINO San Valeriano 26/03/2020 2,3 6,2 8,9 80 7,4 ----
VT CELLENO Acquaforte 26/03/2020 1,7 6,1 9,7 85 1,4 ----
VT CORCHIANO Pantalone 26/03/2020 3,6 8,1 13,2 74 1,8 1.002
VT FARNESE Gressa 26/03/2020 1,1 5 7,6 81 7 ----
VT FARNESE Pian di Sala 26/03/2020 0 4 6,7 87 7,6 ----
VT GROTTE DI CASTRO Borghetto 26/03/2020 1,5 5,6 9,1 83 6 1.007
VT GROTTE DI CASTRO Purgatorio 26/03/2020 -0,1 3,8 6,6 90 6,8 1.006
VT LATERA Centro Florovivaistico 26/03/2020 1,3 5,1 8,8 81 2,2 1.004
VT MONTALTO Le Murelle 26/03/2020 4,7 8,5 11,3 74 6,6 1.004
VT MONTALTO Pescia Romana 26/03/2020 4,2 8,2 10,9 75 5,9 1.003
VT MONTEFIASCONE Commenda 26/03/2020 2,6 6,8 10,1 81 4,5 ----
VT RONCIGLIONE Ponterotto 26/03/2020 2,9 7,2 11,1 75 5,2 ----
VT SORIANO CIMINO Pantane 26/03/2020 2,7 7,1 11,4 78 4,2 1.003
VT SORIANO CIMINO Poggio di Chia 26/03/2020 2,3 6,6 11,1 84 6,2 ----
VT TARQUINIA Portaccia 26/03/2020 4,5 8,5 11,9 80 19,4 ----
VT TUSCANIA Montebello 26/03/2020 4,1 8,3 12 81 7,4 ----
VT VETRALLA Marchionato 26/03/2020 2,3 6,7 10,2 90 8,4 ----
VT VITERBO Pisello 26/03/2020 2,4 6,6 10,2 80 1,6 ----
N.D. = Dati Non Disponibili
---- = Sensore non presente

Le misure esposte sono grezze, ovvero non sono state validate.